sensor_id;sensor_type;location;lat;lon;timestamp;pressure;altitude;pressure_sealevel;temperature;humidity
70343;BME280;57767;42.068;24.752;2023-03-05T00:00:39;98482.69;;;5.65;76.33
70343;BME280;57767;42.068;24.752;2023-03-05T00:01:41;98479.44;;;5.63;76.11
70343;BME280;57767;42.068;24.752;2023-03-05T00:02:43;98491.19;;;5.67;76.30
70343;BME280;57767;42.068;24.752;2023-03-05T00:03:45;98478.81;;;5.61;76.19
70343;BME280;57767;42.068;24.752;2023-03-05T00:04:47;98482.34;;;5.68;76.06
70343;BME280;57767;42.068;24.752;2023-03-05T00:05:55;98472.78;;;5.60;75.87
70343;BME280;57767;42.068;24.752;2023-03-05T00:06:57;98487.41;;;5.69;76.18
70343;BME280;57767;42.068;24.752;2023-03-05T00:07:59;98493.22;;;5.71;76.48
70343;BME280;57767;42.068;24.752;2023-03-05T00:09:01;98494.22;;;5.70;76.56
70343;BME280;57767;42.068;24.752;2023-03-05T00:10:04;98500.28;;;5.71;76.20
70343;BME280;57767;42.068;24.752;2023-03-05T00:11:08;98504.09;;;5.68;76.54
70343;BME280;57767;42.068;24.752;2023-03-05T00:12:10;98498.59;;;5.63;77.44
70343;BME280;57767;42.068;24.752;2023-03-05T00:13:12;98493.53;;;5.62;77.40
70343;BME280;57767;42.068;24.752;2023-03-05T00:14:14;98502.66;;;5.66;77.19
70343;BME280;57767;42.068;24.752;2023-03-05T00:15:16;98501.84;;;5.65;77.40
70343;BME280;57767;42.068;24.752;2023-03-05T00:16:19;98504.66;;;5.64;77.67
70343;BME280;57767;42.068;24.752;2023-03-05T00:17:22;98488.06;;;5.57;77.26
70343;BME280;57767;42.068;24.752;2023-03-05T00:18:24;98496.53;;;5.59;77.16
70343;BME280;57767;42.068;24.752;2023-03-05T00:19:26;98505.84;;;5.47;77.06
70343;BME280;57767;42.068;24.752;2023-03-05T00:20:27;98478.69;;;5.33;77.79
70343;BME280;57767;42.068;24.752;2023-03-05T00:21:35;98488.50;;;5.46;77.43
70343;BME280;57767;42.068;24.752;2023-03-05T00:22:38;98493.56;;;5.47;77.54
70343;BME280;57767;42.068;24.752;2023-03-05T00:23:39;98480.47;;;5.47;77.66
70343;BME280;57767;42.068;24.752;2023-03-05T00:24:41;98486.53;;;5.48;77.83
70343;BME280;57767;42.068;24.752;2023-03-05T00:25:43;98482.72;;;5.50;77.67
70343;BME280;57767;42.068;24.752;2023-03-05T00:26:46;98471.56;;;5.42;77.25
70343;BME280;57767;42.068;24.752;2023-03-05T00:27:48;98477.69;;;5.49;77.28
70343;BME280;57767;42.068;24.752;2023-03-05T00:28:50;98472.00;;;5.45;77.68
70343;BME280;57767;42.068;24.752;2023-03-05T00:29:52;98478.31;;;5.51;77.61
70343;BME280;57767;42.068;24.752;2023-03-05T00:30:58;98462.28;;;5.39;77.06
70343;BME280;57767;42.068;24.752;2023-03-05T00:32:01;98476.06;;;5.48;77.27
70343;BME280;57767;42.068;24.752;2023-03-05T00:33:03;98471.56;;;5.42;77.38
70343;BME280;57767;42.068;24.752;2023-03-05T00:34:08;98468.69;;;5.36;78.30
70343;BME280;57767;42.068;24.752;2023-03-05T00:35:10;98464.03;;;5.17;78.85
70343;BME280;57767;42.068;24.752;2023-03-05T00:36:11;98463.59;;;5.14;79.45
70343;BME280;57767;42.068;24.752;2023-03-05T00:37:13;98457.25;;;5.08;79.50
70343;BME280;57767;42.068;24.752;2023-03-05T00:38:15;98464.94;;;5.10;79.66
70343;BME280;57767;42.068;24.752;2023-03-05T00:39:18;98460.31;;;5.12;79.52
70343;BME280;57767;42.068;24.752;2023-03-05T00:40:21;98463.03;;;5.18;79.66
70343;BME280;57767;42.068;24.752;2023-03-05T00:41:23;98461.41;;;5.17;79.58
70343;BME280;57767;42.068;24.752;2023-03-05T00:42:25;98461.66;;;5.22;79.82
70343;BME280;57767;42.068;24.752;2023-03-05T00:43:27;98464.09;;;5.24;79.26
70343;BME280;57767;42.068;24.752;2023-03-05T00:44:29;98463.91;;;5.25;79.03
70343;BME280;57767;42.068;24.752;2023-03-05T00:45:31;98439.50;;;5.18;79.26
70343;BME280;57767;42.068;24.752;2023-03-05T00:46:33;98458.97;;;5.30;79.24
70343;BME280;57767;42.068;24.752;2023-03-05T00:47:35;98456.34;;;5.30;79.11
70343;BME280;57767;42.068;24.752;2023-03-05T00:48:37;98453.16;;;5.35;78.79
70343;BME280;57767;42.068;24.752;2023-03-05T00:49:38;98453.97;;;5.35;79.25
70343;BME280;57767;42.068;24.752;2023-03-05T00:50:40;98443.63;;;5.27;79.07
70343;BME280;57767;42.068;24.752;2023-03-05T00:51:42;98450.13;;;5.31;79.00
70343;BME280;57767;42.068;24.752;2023-03-05T00:52:44;98443.44;;;5.29;79.19
70343;BME280;57767;42.068;24.752;2023-03-05T00:53:45;98443.16;;;5.24;78.83
70343;BME280;57767;42.068;24.752;2023-03-05T00:54:47;98449.31;;;5.31;79.33
70343;BME280;57767;42.068;24.752;2023-03-05T00:55:49;98451.28;;;5.29;78.91
70343;BME280;57767;42.068;24.752;2023-03-05T00:56:51;98447.59;;;5.23;78.99
70343;BME280;57767;42.068;24.752;2023-03-05T00:57:52;98449.22;;;5.24;78.62
70343;BME280;57767;42.068;24.752;2023-03-05T00:58:54;98451.81;;;5.24;79.35
70343;BME280;57767;42.068;24.752;2023-03-05T00:59:57;98452.81;;;5.23;78.74
70343;BME280;57767;42.068;24.752;2023-03-05T01:00:59;98459.22;;;5.21;79.52
70343;BME280;57767;42.068;24.752;2023-03-05T01:02:01;98453.75;;;5.16;79.42
70343;BME280;57767;42.068;24.752;2023-03-05T01:03:03;98450.69;;;5.12;79.79
70343;BME280;57767;42.068;24.752;2023-03-05T01:04:05;98445.09;;;5.00;79.50
70343;BME280;57767;42.068;24.752;2023-03-05T01:05:10;98439.69;;;5.02;79.97
70343;BME280;57767;42.068;24.752;2023-03-05T01:06:13;98450.22;;;5.09;79.30
70343;BME280;57767;42.068;24.752;2023-03-05T01:07:17;98440.56;;;5.09;79.55
70343;BME280;57767;42.068;24.752;2023-03-05T01:08:19;98446.06;;;5.14;79.71
70343;BME280;57767;42.068;24.752;2023-03-05T01:09:21;98452.75;;;5.17;79.51
70343;BME280;57767;42.068;24.752;2023-03-05T01:10:25;98452.19;;;5.21;78.77
70343;BME280;57767;42.068;24.752;2023-03-05T01:11:27;98451.19;;;5.22;79.10
70343;BME280;57767;42.068;24.752;2023-03-05T01:12:29;98434.63;;;5.15;78.92
70343;BME280;57767;42.068;24.752;2023-03-05T01:13:31;98454.00;;;5.21;78.74
70343;BME280;57767;42.068;24.752;2023-03-05T01:14:33;98442.47;;;5.15;79.13
70343;BME280;57767;42.068;24.752;2023-03-05T01:15:36;98442.19;;;5.10;79.12
70343;BME280;57767;42.068;24.752;2023-03-05T01:16:38;98442.19;;;5.10;79.26
70343;BME280;57767;42.068;24.752;2023-03-05T01:17:40;98441.47;;;5.16;78.63
70343;BME280;57767;42.068;24.752;2023-03-05T01:18:42;98449.97;;;5.18;78.48
70343;BME280;57767;42.068;24.752;2023-03-05T01:19:43;98439.50;;;5.18;79.20
70343;BME280;57767;42.068;24.752;2023-03-05T01:20:46;98451.13;;;5.16;79.03
70343;BME280;57767;42.068;24.752;2023-03-05T01:21:48;98434.09;;;5.05;79.13
70343;BME280;57767;42.068;24.752;2023-03-05T01:22:49;98437.59;;;4.97;79.33
70343;BME280;57767;42.068;24.752;2023-03-05T01:23:51;98435.56;;;4.93;79.73
70343;BME280;57767;42.068;24.752;2023-03-05T01:24:53;98435.16;;;4.96;79.47
70343;BME280;57767;42.068;24.752;2023-03-05T01:25:56;98433.81;;;5.00;79.88
70343;BME280;57767;42.068;24.752;2023-03-05T01:26:58;98432.66;;;5.02;79.48
70343;BME280;57767;42.068;24.752;2023-03-05T01:28:00;98441.56;;;5.08;79.38
70343;BME280;57767;42.068;24.752;2023-03-05T01:29:02;98426.59;;;5.02;79.73
70343;BME280;57767;42.068;24.752;2023-03-05T01:30:05;98439.22;;;5.13;80.08
70343;BME280;57767;42.068;24.752;2023-03-05T01:31:08;98432.53;;;5.11;79.78
70343;BME280;57767;42.068;24.752;2023-03-05T01:32:10;98424.69;;;5.11;79.86
70343;BME280;57767;42.068;24.752;2023-03-05T01:33:12;98433.88;;;5.21;79.75
70343;BME280;57767;42.068;24.752;2023-03-05T01:34:14;98437.75;;;5.25;79.44
70343;BME280;57767;42.068;24.752;2023-03-05T01:35:18;98428.03;;;5.19;79.17
70343;BME280;57767;42.068;24.752;2023-03-05T01:36:21;98428.91;;;5.26;79.08
70343;BME280;57767;42.068;24.752;2023-03-05T01:37:25;98423.03;;;5.24;78.94
70343;BME280;57767;42.068;24.752;2023-03-05T01:38:27;98384.09;;;5.00;78.57
70343;BME280;57767;42.068;24.752;2023-03-05T01:39:29;98431.16;;;5.29;79.08
70343;BME280;57767;42.068;24.752;2023-03-05T01:40:31;98425.53;;;5.32;78.76
70343;BME280;57767;42.068;24.752;2023-03-05T01:41:33;98423.19;;;5.37;78.03
70343;BME280;57767;42.068;24.752;2023-03-05T01:42:35;98426.06;;;5.43;78.64
70343;BME280;57767;42.068;24.752;2023-03-05T01:43:37;98429.28;;;5.45;77.70
70343;BME280;57767;42.068;24.752;2023-03-05T01:45:20;98420.84;;;5.43;77.54
70343;BME280;57767;42.068;24.752;2023-03-05T01:47:25;98426.13;;;5.49;77.63
70343;BME280;57767;42.068;24.752;2023-03-05T01:48:27;98414.34;;;5.38;77.28
70343;BME280;57767;42.068;24.752;2023-03-05T01:49:37;98420.56;;;5.37;77.42
70343;BME280;57767;42.068;24.752;2023-03-05T01:50:40;98421.25;;;5.46;77.52
70343;BME280;57767;42.068;24.752;2023-03-05T01:51:52;98411.97;;;5.44;78.01
70343;BME280;57767;42.068;24.752;2023-03-05T01:53:00;98425.94;;;5.51;77.39
70343;BME280;57767;42.068;24.752;2023-03-05T01:54:04;98414.47;;;5.52;77.16
70343;BME280;57767;42.068;24.752;2023-03-05T01:55:12;98415.72;;;5.56;77.61
70343;BME280;57767;42.068;24.752;2023-03-05T01:56:15;98422.16;;;5.53;77.73
70343;BME280;57767;42.068;24.752;2023-03-05T01:57:21;98409.09;;;5.38;77.84
70343;BME280;57767;42.068;24.752;2023-03-05T01:58:24;98417.28;;;5.50;78.05
70343;BME280;57767;42.068;24.752;2023-03-05T01:59:26;98409.16;;;5.45;77.43
70343;BME280;57767;42.068;24.752;2023-03-05T02:00:33;98426.13;;;5.49;77.54
70343;BME280;57767;42.068;24.752;2023-03-05T02:01:39;98418.03;;;5.44;77.52
70343;BME280;57767;42.068;24.752;2023-03-05T02:02:43;98428.28;;;5.46;77.69
70343;BME280;57767;42.068;24.752;2023-03-05T02:03:46;98411.16;;;5.43;78.09
70343;BME280;57767;42.068;24.752;2023-03-05T02:04:55;98414.59;;;5.44;77.64
70343;BME280;57767;42.068;24.752;2023-03-05T02:05:59;98416.00;;;5.46;78.22
70343;BME280;57767;42.068;24.752;2023-03-05T02:07:01;98401.44;;;5.37;78.06
70343;BME280;57767;42.068;24.752;2023-03-05T02:08:09;98414.84;;;5.49;77.95
70343;BME280;57767;42.068;24.752;2023-03-05T02:09:12;98414.22;;;5.47;77.75
70343;BME280;57767;42.068;24.752;2023-03-05T02:10:18;98421.69;;;5.50;78.35
70343;BME280;57767;42.068;24.752;2023-03-05T02:11:21;98405.13;;;5.43;77.95
70343;BME280;57767;42.068;24.752;2023-03-05T02:12:23;98416.47;;;5.50;78.33
70343;BME280;57767;42.068;24.752;2023-03-05T02:13:28;98422.31;;;5.52;78.10
70343;BME280;57767;42.068;24.752;2023-03-05T02:14:32;98424.69;;;5.47;78.03
70343;BME280;57767;42.068;24.752;2023-03-05T02:15:34;98405.47;;;5.39;78.31
70343;BME280;57767;42.068;24.752;2023-03-05T02:16:37;98416.41;;;5.43;77.89
70343;BME280;57767;42.068;24.752;2023-03-05T02:17:39;98421.19;;;5.39;77.95
70343;BME280;57767;42.068;24.752;2023-03-05T02:18:41;98421.75;;;5.35;77.48
70343;BME280;57767;42.068;24.752;2023-03-05T02:19:51;98423.53;;;5.34;77.60
70343;BME280;57767;42.068;24.752;2023-03-05T02:21:58;98424.00;;;5.38;77.33
70343;BME280;57767;42.068;24.752;2023-03-05T02:22:59;98404.22;;;5.35;77.73
70343;BME280;57767;42.068;24.752;2023-03-05T02:24:01;98418.56;;;5.39;77.48
70343;BME280;57767;42.068;24.752;2023-03-05T02:25:21;98411.09;;;5.36;77.15
70343;BME280;57767;42.068;24.752;2023-03-05T02:26:24;98407.03;;;5.34;77.36
70343;BME280;57767;42.068;24.752;2023-03-05T02:27:29;98413.88;;;5.35;77.19
70343;BME280;57767;42.068;24.752;2023-03-05T02:28:38;98408.22;;;5.31;77.41
70343;BME280;57767;42.068;24.752;2023-03-05T02:29:44;98419.47;;;5.32;78.18
70343;BME280;57767;42.068;24.752;2023-03-05T02:30:46;98415.06;;;5.32;77.82
70343;BME280;57767;42.068;24.752;2023-03-05T02:31:49;98401.28;;;5.24;77.77
70343;BME280;57767;42.068;24.752;2023-03-05T02:32:51;98401.78;;;5.34;78.05
70343;BME280;57767;42.068;24.752;2023-03-05T02:33:53;98411.91;;;5.37;77.76
70343;BME280;57767;42.068;24.752;2023-03-05T02:34:56;98404.59;;;5.32;77.41
70343;BME280;57767;42.068;24.752;2023-03-05T02:35:58;98411.56;;;5.25;77.57
70343;BME280;57767;42.068;24.752;2023-03-05T02:37:01;98399.59;;;5.16;78.21
70343;BME280;57767;42.068;24.752;2023-03-05T02:38:05;98413.38;;;5.25;78.05
70343;BME280;57767;42.068;24.752;2023-03-05T02:39:06;98409.94;;;5.24;77.65
70343;BME280;57767;42.068;24.752;2023-03-05T02:40:11;98421.22;;;5.25;77.53
70343;BME280;57767;42.068;24.752;2023-03-05T02:41:14;98417.78;;;5.24;77.55
70343;BME280;57767;42.068;24.752;2023-03-05T02:42:16;98419.41;;;5.25;77.53
70343;BME280;57767;42.068;24.752;2023-03-05T02:43:18;98416.63;;;5.27;78.05
70343;BME280;57767;42.068;24.752;2023-03-05T02:44:19;98410.75;;;5.25;78.12
70343;BME280;57767;42.068;24.752;2023-03-05T02:45:21;98410.94;;;5.23;78.16
70343;BME280;57767;42.068;24.752;2023-03-05T02:46:23;98409.63;;;5.13;78.14
70343;BME280;57767;42.068;24.752;2023-03-05T02:47:25;98415.31;;;5.16;78.02
70343;BME280;57767;42.068;24.752;2023-03-05T02:48:28;98410.06;;;5.16;77.41
70343;BME280;57767;42.068;24.752;2023-03-05T02:49:29;98401.06;;;5.04;77.97
70343;BME280;57767;42.068;24.752;2023-03-05T02:50:32;98403.56;;;5.12;77.97
70343;BME280;57767;42.068;24.752;2023-03-05T02:51:34;98412.22;;;5.13;77.72
70343;BME280;57767;42.068;24.752;2023-03-05T02:52:36;98411.78;;;5.09;78.64
70343;BME280;57767;42.068;24.752;2023-03-05T02:53:38;98407.53;;;5.08;77.82
70343;BME280;57767;42.068;24.752;2023-03-05T02:54:40;98408.53;;;5.07;78.41
70343;BME280;57767;42.068;24.752;2023-03-05T02:55:45;98397.63;;;5.03;77.92
70343;BME280;57767;42.068;24.752;2023-03-05T02:56:47;98399.91;;;5.07;77.98
70343;BME280;57767;42.068;24.752;2023-03-05T02:57:49;98405.31;;;5.05;77.57
70343;BME280;57767;42.068;24.752;2023-03-05T02:58:51;98402.59;;;4.98;78.47
70343;BME280;57767;42.068;24.752;2023-03-05T02:59:52;98406.31;;;4.89;78.09
70343;BME280;57767;42.068;24.752;2023-03-05T03:00:54;98404.16;;;4.93;78.38
70343;BME280;57767;42.068;24.752;2023-03-05T03:01:56;98407.78;;;4.92;78.71
70343;BME280;57767;42.068;24.752;2023-03-05T03:02:58;98395.25;;;4.73;79.46
70343;BME280;57767;42.068;24.752;2023-03-05T03:04:00;98401.22;;;4.66;79.96
70343;BME280;57767;42.068;24.752;2023-03-05T03:05:02;98392.63;;;4.58;80.23
70343;BME280;57767;42.068;24.752;2023-03-05T03:06:04;98395.97;;;4.52;80.92
70343;BME280;57767;42.068;24.752;2023-03-05T03:07:06;98397.06;;;4.43;81.14
70343;BME280;57767;42.068;24.752;2023-03-05T03:08:07;98393.81;;;4.41;81.85
70343;BME280;57767;42.068;24.752;2023-03-05T03:09:10;98397.75;;;4.37;82.45
70343;BME280;57767;42.068;24.752;2023-03-05T03:10:12;98388.13;;;4.37;82.62
70343;BME280;57767;42.068;24.752;2023-03-05T03:11:14;98392.00;;;4.41;81.91
70343;BME280;57767;42.068;24.752;2023-03-05T03:12:16;98399.41;;;4.38;82.16
70343;BME280;57767;42.068;24.752;2023-03-05T03:13:17;98361.91;;;4.16;82.34
70343;BME280;57767;42.068;24.752;2023-03-05T03:14:20;98387.13;;;4.38;82.69
70343;BME280;57767;42.068;24.752;2023-03-05T03:15:22;98383.34;;;4.41;83.44
70343;BME280;57767;42.068;24.752;2023-03-05T03:16:23;98391.03;;;4.42;83.11
70343;BME280;57767;42.068;24.752;2023-03-05T03:17:25;98392.91;;;4.48;83.63
70343;BME280;57767;42.068;24.752;2023-03-05T03:18:27;98392.25;;;4.46;83.72
70343;BME280;57767;42.068;24.752;2023-03-05T03:19:29;98393.81;;;4.55;82.92
70343;BME280;57767;42.068;24.752;2023-03-05T03:20:30;98395.63;;;4.55;82.97
70343;BME280;57767;42.068;24.752;2023-03-05T03:21:33;98397.03;;;4.57;82.33
70343;BME280;57767;42.068;24.752;2023-03-05T03:22:35;98395.06;;;4.59;82.90
70343;BME280;57767;42.068;24.752;2023-03-05T03:23:36;98391.63;;;4.59;82.40
70343;BME280;57767;42.068;24.752;2023-03-05T03:24:40;98397.84;;;4.73;82.09
70343;BME280;57767;42.068;24.752;2023-03-05T03:25:42;98404.34;;;4.77;80.74
70343;BME280;57767;42.068;24.752;2023-03-05T03:26:44;98390.00;;;4.73;81.39
70343;BME280;57767;42.068;24.752;2023-03-05T03:27:46;98405.22;;;4.84;80.91
70343;BME280;57767;42.068;24.752;2023-03-05T03:28:48;98394.94;;;4.82;80.45
70343;BME280;57767;42.068;24.752;2023-03-05T03:29:49;98391.97;;;4.85;80.38
70343;BME280;57767;42.068;24.752;2023-03-05T03:30:51;98395.03;;;4.89;79.98
70343;BME280;57767;42.068;24.752;2023-03-05T03:31:53;98402.16;;;4.95;79.94
70343;BME280;57767;42.068;24.752;2023-03-05T03:32:55;98394.13;;;4.96;79.10
70343;BME280;57767;42.068;24.752;2023-03-05T03:33:56;98400.63;;;5.00;79.94
70343;BME280;57767;42.068;24.752;2023-03-05T03:34:59;98400.78;;;4.99;79.83
70343;BME280;57767;42.068;24.752;2023-03-05T03:36:00;98401.78;;;4.98;79.38
70343;BME280;57767;42.068;24.752;2023-03-05T03:37:02;98386.44;;;4.95;79.19
70343;BME280;57767;42.068;24.752;2023-03-05T03:38:05;98396.19;;;5.01;79.43
70343;BME280;57767;42.068;24.752;2023-03-05T03:39:07;98392.94;;;4.99;78.98
70343;BME280;57767;42.068;24.752;2023-03-05T03:40:10;98390.69;;;4.96;79.19
70343;BME280;57767;42.068;24.752;2023-03-05T03:41:12;98375.91;;;4.88;78.58
70343;BME280;57767;42.068;24.752;2023-03-05T03:42:18;98391.50;;;4.96;79.02
70343;BME280;57767;42.068;24.752;2023-03-05T03:43:21;98391.31;;;4.98;78.65
70343;BME280;57767;42.068;24.752;2023-03-05T03:44:23;98392.78;;;5.00;79.04
70343;BME280;57767;42.068;24.752;2023-03-05T03:45:24;98391.78;;;5.01;78.42
70343;BME280;57767;42.068;24.752;2023-03-05T03:46:26;98397.00;;;5.01;79.12
70343;BME280;57767;42.068;24.752;2023-03-05T03:47:29;98390.34;;;4.99;78.70
70343;BME280;57767;42.068;24.752;2023-03-05T03:48:31;98398.19;;;4.99;79.77
70343;BME280;57767;42.068;24.752;2023-03-05T03:49:33;98390.69;;;4.96;79.34
70343;BME280;57767;42.068;24.752;2023-03-05T03:50:42;98387.91;;;4.97;79.42
70343;BME280;57767;42.068;24.752;2023-03-05T03:51:45;98394.41;;;4.87;79.33
70343;BME280;57767;42.068;24.752;2023-03-05T03:52:47;98380.44;;;4.80;79.66
70343;BME280;57767;42.068;24.752;2023-03-05T03:53:49;98388.72;;;4.83;80.48
70343;BME280;57767;42.068;24.752;2023-03-05T03:54:50;98383.06;;;4.80;80.66
70343;BME280;57767;42.068;24.752;2023-03-05T03:55:57;98373.06;;;4.68;80.89
70343;BME280;57767;42.068;24.752;2023-03-05T03:56:59;98383.16;;;4.72;81.09
70343;BME280;57767;42.068;24.752;2023-03-05T03:58:01;98384.25;;;4.77;80.87
70343;BME280;57767;42.068;24.752;2023-03-05T03:59:03;98383.44;;;4.77;81.25
70343;BME280;57767;42.068;24.752;2023-03-05T04:00:06;98375.59;;;4.62;81.02
70343;BME280;57767;42.068;24.752;2023-03-05T04:01:08;98385.69;;;4.50;81.53
70343;BME280;57767;42.068;24.752;2023-03-05T04:02:10;98386.59;;;4.43;81.77
70343;BME280;57767;42.068;24.752;2023-03-05T04:03:11;98380.91;;;4.39;81.67
70343;BME280;57767;42.068;24.752;2023-03-05T04:04:13;98381.81;;;4.46;82.33
70343;BME280;57767;42.068;24.752;2023-03-05T04:05:15;98386.69;;;4.49;82.06
70343;BME280;57767;42.068;24.752;2023-03-05T04:06:17;98387.69;;;4.48;81.57
70343;BME280;57767;42.068;24.752;2023-03-05T04:07:19;98378.56;;;4.44;81.78
70343;BME280;57767;42.068;24.752;2023-03-05T04:08:20;98369.13;;;4.43;81.36
70343;BME280;57767;42.068;24.752;2023-03-05T04:09:22;98384.25;;;4.48;81.32
70343;BME280;57767;42.068;24.752;2023-03-05T04:10:24;98376.31;;;4.41;81.68
70343;BME280;57767;42.068;24.752;2023-03-05T04:11:27;98386.69;;;4.49;81.61
70343;BME280;57767;42.068;24.752;2023-03-05T04:12:28;98387.97;;;4.53;81.73
70343;BME280;57767;42.068;24.752;2023-03-05T04:13:30;98379.47;;;4.51;81.59
70343;BME280;57767;42.068;24.752;2023-03-05T04:14:32;98379.47;;;4.51;81.19
70343;BME280;57767;42.068;24.752;2023-03-05T04:15:34;98384.34;;;4.54;81.01
70343;BME280;57767;42.068;24.752;2023-03-05T04:16:36;98386.16;;;4.54;82.23
70343;BME280;57767;42.068;24.752;2023-03-05T04:17:38;98387.22;;;4.59;81.72
70343;BME280;57767;42.068;24.752;2023-03-05T04:18:40;98385.88;;;4.63;81.46
70343;BME280;57767;42.068;24.752;2023-03-05T04:19:42;98378.38;;;4.60;80.71
70343;BME280;57767;42.068;24.752;2023-03-05T04:20:44;98390.13;;;4.64;81.35
70343;BME280;57767;42.068;24.752;2023-03-05T04:21:46;98379.19;;;4.61;80.38
70343;BME280;57767;42.068;24.752;2023-03-05T04:22:47;98389.75;;;4.67;80.73
70343;BME280;57767;42.068;24.752;2023-03-05T04:23:49;98382.91;;;4.66;80.03
70343;BME280;57767;42.068;24.752;2023-03-05T04:24:51;98388.94;;;4.67;80.24
70343;BME280;57767;42.068;24.752;2023-03-05T04:25:53;98381.28;;;4.65;80.16
70343;BME280;57767;42.068;24.752;2023-03-05T04:26:54;98386.16;;;4.68;79.56
70343;BME280;57767;42.068;24.752;2023-03-05T04:27:56;98389.38;;;4.71;79.44
70343;BME280;57767;42.068;24.752;2023-03-05T04:28:58;98392.78;;;4.71;79.62
70343;BME280;57767;42.068;24.752;2023-03-05T04:30:00;98394.00;;;4.68;79.82
70343;BME280;57767;42.068;24.752;2023-03-05T04:31:02;98393.09;;;4.61;79.95
70343;BME280;57767;42.068;24.752;2023-03-05T04:32:04;98402.03;;;4.67;79.45
70343;BME280;57767;42.068;24.752;2023-03-05T04:33:06;98403.19;;;4.64;80.06
70343;BME280;57767;42.068;24.752;2023-03-05T04:34:08;98404.25;;;4.70;80.20
70343;BME280;57767;42.068;24.752;2023-03-05T04:35:10;98408.50;;;4.71;79.43
70343;BME280;57767;42.068;24.752;2023-03-05T04:36:11;98406.69;;;4.72;80.38
70343;BME280;57767;42.068;24.752;2023-03-05T04:37:13;98400.81;;;4.69;79.88
70343;BME280;57767;42.068;24.752;2023-03-05T04:38:15;98394.59;;;4.71;80.20
70343;BME280;57767;42.068;24.752;2023-03-05T04:39:17;98401.47;;;4.72;79.63
70343;BME280;57767;42.068;24.752;2023-03-05T04:40:21;98401.47;;;4.72;79.45
70343;BME280;57767;42.068;24.752;2023-03-05T04:41:23;98405.34;;;4.76;80.16
70343;BME280;57767;42.068;24.752;2023-03-05T04:42:24;98401.09;;;4.75;79.47
70343;BME280;57767;42.068;24.752;2023-03-05T04:43:26;98397.50;;;4.76;79.25
70343;BME280;57767;42.068;24.752;2023-03-05T04:44:28;98400.66;;;4.71;79.18
70343;BME280;57767;42.068;24.752;2023-03-05T04:45:30;98398.31;;;4.76;79.23
70343;BME280;57767;42.068;24.752;2023-03-05T04:46:32;98390.56;;;4.68;79.13
70343;BME280;57767;42.068;24.752;2023-03-05T04:47:34;98405.06;;;4.71;80.05
70343;BME280;57767;42.068;24.752;2023-03-05T04:48:36;98397.78;;;4.66;80.07
70343;BME280;57767;42.068;24.752;2023-03-05T04:49:38;98394.88;;;4.61;80.24
70343;BME280;57767;42.068;24.752;2023-03-05T04:50:39;98402.84;;;4.67;79.91
70343;BME280;57767;42.068;24.752;2023-03-05T04:51:41;98406.44;;;4.66;80.37
70343;BME280;57767;42.068;24.752;2023-03-05T04:52:44;98412.38;;;4.60;80.75
70343;BME280;57767;42.068;24.752;2023-03-05T04:53:45;98398.03;;;4.56;80.22
70343;BME280;57767;42.068;24.752;2023-03-05T04:54:47;98391.09;;;4.49;80.68
70343;BME280;57767;42.068;24.752;2023-03-05T04:55:55;98400.03;;;4.54;80.78
70343;BME280;57767;42.068;24.752;2023-03-05T04:56:57;98400.66;;;4.56;81.48
70343;BME280;57767;42.068;24.752;2023-03-05T04:57:58;98400.84;;;4.55;80.92
70343;BME280;57767;42.068;24.752;2023-03-05T04:59:00;98384.06;;;4.49;81.14
70343;BME280;57767;42.068;24.752;2023-03-05T05:00:04;98388.59;;;4.55;80.78
70343;BME280;57767;42.068;24.752;2023-03-05T05:01:12;98398.78;;;4.65;80.05
70343;BME280;57767;42.068;24.752;2023-03-05T05:02:14;98402.03;;;4.67;80.48
70343;BME280;57767;42.068;24.752;2023-03-05T05:03:15;98404.47;;;4.68;80.67
70343;BME280;57767;42.068;24.752;2023-03-05T05:04:17;98396.63;;;4.68;80.71
70343;BME280;57767;42.068;24.752;2023-03-05T05:05:22;98405.06;;;4.71;80.62
70343;BME280;57767;42.068;24.752;2023-03-05T05:06:24;98390.34;;;4.69;80.69
70343;BME280;57767;42.068;24.752;2023-03-05T05:07:26;98398.19;;;4.69;80.39
70343;BME280;57767;42.068;24.752;2023-03-05T05:08:28;98400.28;;;4.74;80.98
70343;BME280;57767;42.068;24.752;2023-03-05T05:09:30;98381.91;;;4.67;80.60
70343;BME280;57767;42.068;24.752;2023-03-05T05:10:31;98392.78;;;4.71;80.53
70343;BME280;57767;42.068;24.752;2023-03-05T05:11:33;98391.63;;;4.74;81.11
70343;BME280;57767;42.068;24.752;2023-03-05T05:12:35;98398.59;;;4.81;80.25
70343;BME280;57767;42.068;24.752;2023-03-05T05:13:37;98384.06;;;4.79;80.30
70343;BME280;57767;42.068;24.752;2023-03-05T05:14:39;98385.88;;;4.78;80.33
70343;BME280;57767;42.068;24.752;2023-03-05T05:15:41;98402.25;;;4.87;80.39
70343;BME280;57767;42.068;24.752;2023-03-05T05:16:42;98399.47;;;4.88;80.67
70343;BME280;57767;42.068;24.752;2023-03-05T05:17:44;98401.28;;;4.88;80.59
70343;BME280;57767;42.068;24.752;2023-03-05T05:18:46;98401.28;;;4.88;80.81
70343;BME280;57767;42.068;24.752;2023-03-05T05:19:48;98399.09;;;4.91;79.95
70343;BME280;57767;42.068;24.752;2023-03-05T05:20:50;98396.84;;;4.88;80.33
70343;BME280;57767;42.068;24.752;2023-03-05T05:21:52;98396.91;;;4.95;80.63
70343;BME280;57767;42.068;24.752;2023-03-05T05:22:54;98402.78;;;4.97;80.18
70343;BME280;57767;42.068;24.752;2023-03-05T05:23:55;98409.81;;;4.96;79.76
70343;BME280;57767;42.068;24.752;2023-03-05T05:24:57;98397.66;;;4.89;79.99
70343;BME280;57767;42.068;24.752;2023-03-05T05:26:00;98408.75;;;4.91;80.60
70343;BME280;57767;42.068;24.752;2023-03-05T05:27:03;98401.63;;;4.85;80.89
70343;BME280;57767;42.068;24.752;2023-03-05T05:28:04;98396.03;;;4.88;80.94
70343;BME280;57767;42.068;24.752;2023-03-05T05:29:06;98407.78;;;4.92;81.33
70343;BME280;57767;42.068;24.752;2023-03-05T05:30:08;98400.19;;;4.82;82.20
70343;BME280;57767;42.068;24.752;2023-03-05T05:31:13;98403.81;;;4.81;81.64
70343;BME280;57767;42.068;24.752;2023-03-05T05:32:16;98407.50;;;4.87;82.05
70343;BME280;57767;42.068;24.752;2023-03-05T05:33:19;98406.84;;;4.85;82.72
70343;BME280;57767;42.068;24.752;2023-03-05T05:34:21;98408.84;;;4.83;82.42